createdAt,value
2022-08-31T00:00:59.707Z,78.42
2022-08-31T00:04:03.562Z,78.91
2022-08-31T00:07:05.800Z,79.28
2022-08-31T00:10:14.807Z,79.86
2022-08-31T00:13:18.040Z,80.37
2022-08-31T00:16:20.350Z,80.41
2022-08-31T00:19:22.510Z,80.63
2022-08-31T00:22:24.582Z,80.91
2022-08-31T00:25:26.721Z,81.66
2022-08-31T00:28:28.833Z,81.82
2022-08-31T00:31:31.207Z,81.79
2022-08-31T00:34:33.314Z,82.59
2022-08-31T00:37:35.409Z,82.95
2022-08-31T00:40:44.977Z,83.37
2022-08-31T00:43:59.927Z,83.70
2022-08-31T00:47:02.598Z,83.89
2022-08-31T00:50:07.662Z,84.26
2022-08-31T00:53:09.755Z,83.94
2022-08-31T00:56:11.953Z,84.53
2022-08-31T00:59:14.682Z,84.39
2022-08-31T01:02:17.557Z,83.54
2022-08-31T01:05:19.771Z,84.59
2022-08-31T01:08:29.558Z,84.30
2022-08-31T01:11:33.466Z,83.78
2022-08-31T01:14:36.847Z,84.90
2022-08-31T01:17:39.350Z,85.03
2022-08-31T01:20:49.017Z,84.59
2022-08-31T01:23:54.926Z,83.85
2022-08-31T01:26:57.080Z,85.08
2022-08-31T01:30:04.090Z,83.78
2022-08-31T01:33:06.489Z,82.75
2022-08-31T01:36:11.007Z,83.95
2022-08-31T01:39:15.370Z,84.44
2022-08-31T01:42:18.618Z,84.44
2022-08-31T01:45:22.122Z,84.49
2022-08-31T01:48:24.239Z,84.22
2022-08-31T01:51:27.131Z,83.75
2022-08-31T01:54:29.252Z,82.54
2022-08-31T01:57:34.283Z,83.22
2022-08-31T02:01:32.615Z,83.47
2022-08-31T02:04:29.156Z,83.29
2022-08-31T02:07:31.978Z,83.98
2022-08-31T02:10:34.690Z,84.29
2022-08-31T02:13:37.008Z,83.18
2022-08-31T02:16:39.531Z,82.06
2022-08-31T02:19:42.221Z,82.42
2022-08-31T02:22:44.712Z,82.46
2022-08-31T02:25:48.035Z,82.65
2022-08-31T02:28:50.210Z,82.39
2022-08-31T02:31:52.422Z,81.34
2022-08-31T02:34:54.620Z,81.71
2022-08-31T02:37:56.787Z,82.14
2022-08-31T02:41:00.183Z,80.32
2022-08-31T02:44:03.339Z,80.52
2022-08-31T02:47:05.650Z,80.97
2022-08-31T02:50:23.011Z,82.74
2022-08-31T02:53:25.186Z,81.28
2022-08-31T02:56:27.523Z,81.44
2022-08-31T02:59:29.694Z,81.70
2022-08-31T03:02:33.938Z,81.49
2022-08-31T03:05:36.775Z,82.54
2022-08-31T03:08:39.517Z,82.44
2022-08-31T03:11:41.881Z,83.49
2022-08-31T03:14:44.548Z,83.56
2022-08-31T03:17:47.113Z,83.09
2022-08-31T03:20:49.594Z,82.70
2022-08-31T03:23:51.721Z,84.17
2022-08-31T03:26:54.395Z,84.22
2022-08-31T03:29:56.718Z,83.56
2022-08-31T03:33:02.785Z,84.09
2022-08-31T03:36:07.275Z,82.63
2022-08-31T03:39:09.416Z,83.50
2022-08-31T03:42:11.715Z,82.87
2022-08-31T03:45:14.119Z,83.04
2022-08-31T03:48:16.936Z,84.28
2022-08-31T03:51:20.719Z,84.23
2022-08-31T03:54:23.469Z,83.01
2022-08-31T03:57:25.908Z,83.90
2022-08-31T04:00:29.138Z,83.61
2022-08-31T04:03:37.192Z,84.91
2022-08-31T04:06:57.631Z,84.63
2022-08-31T04:10:35.242Z,84.04
2022-08-31T04:13:49.446Z,83.82
2022-08-31T04:17:11.291Z,84.51
2022-08-31T04:20:26.523Z,84.17
2022-08-31T04:23:32.398Z,84.08
2022-08-31T04:26:37.185Z,83.56
2022-08-31T04:29:40.649Z,84.04
2022-08-31T04:32:42.744Z,84.02
2022-08-31T04:35:44.825Z,83.72
2022-08-31T04:38:50.473Z,82.75
2022-08-31T04:41:53.020Z,83.14
2022-08-31T04:44:55.543Z,83.43
2022-08-31T04:47:58.061Z,82.74
2022-08-31T04:51:11.913Z,83.41
2022-08-31T04:54:14.621Z,83.69
2022-08-31T04:57:17.366Z,83.29
2022-08-31T05:00:19.505Z,82.56
2022-08-31T05:03:51.175Z,82.81
2022-08-31T05:06:54.168Z,82.83
2022-08-31T05:09:56.294Z,83.02
2022-08-31T05:12:58.439Z,83.82
2022-08-31T05:16:00.869Z,83.82
2022-08-31T05:19:03.074Z,83.51
2022-08-31T05:22:05.205Z,83.00
2022-08-31T05:25:09.838Z,82.47
2022-08-31T05:28:11.977Z,83.20
2022-08-31T05:31:14.232Z,83.32
2022-08-31T05:34:20.813Z,83.24
2022-08-31T05:37:24.469Z,82.51
2022-08-31T05:40:27.891Z,82.86
2022-08-31T05:43:30.961Z,81.73
2022-08-31T05:46:33.442Z,82.43
2022-08-31T05:49:36.162Z,82.55
2022-08-31T05:52:38.275Z,82.12
2022-08-31T05:55:40.451Z,81.52
2022-08-31T05:58:44.368Z,81.24
2022-08-31T06:01:48.594Z,81.31
2022-08-31T06:04:58.061Z,80.65
2022-08-31T06:08:00.307Z,79.52
2022-08-31T06:11:04.013Z,80.26
2022-08-31T06:14:06.425Z,79.78
2022-08-31T06:17:09.602Z,80.03
2022-08-31T06:20:16.912Z,79.25
2022-08-31T06:23:21.022Z,79.60
2022-08-31T06:26:26.371Z,79.22
2022-08-31T06:29:31.428Z,78.43
2022-08-31T06:32:34.703Z,77.91
2022-08-31T06:35:40.322Z,77.92
2022-08-31T06:39:02.973Z,78.00
2022-08-31T06:42:10.411Z,78.63
2022-08-31T06:45:32.803Z,78.92
2022-08-31T06:48:55.259Z,77.27
2022-08-31T06:52:00.298Z,77.50
2022-08-31T06:55:03.835Z,78.29
2022-08-31T06:58:24.724Z,77.92
2022-08-31T07:01:45.680Z,76.89
2022-08-31T07:05:07.506Z,77.51
2022-08-31T07:08:09.673Z,76.30
2022-08-31T07:11:17.191Z,75.86
2022-08-31T07:14:24.737Z,76.14
2022-08-31T07:17:28.460Z,75.52
2022-08-31T07:20:30.592Z,75.74
2022-08-31T07:23:32.974Z,73.95
2022-08-31T07:26:58.025Z,75.03
2022-08-31T07:30:05.872Z,74.85
2022-08-31T07:33:09.470Z,74.38
2022-08-31T07:36:16.627Z,74.17
2022-08-31T07:39:50.399Z,75.04
2022-08-31T07:42:52.599Z,74.92
2022-08-31T07:45:54.844Z,73.75
2022-08-31T07:48:59.800Z,73.76
2022-08-31T07:52:29.698Z,73.25
2022-08-31T07:55:40.091Z,71.79
2022-08-31T07:58:47.818Z,72.50
2022-08-31T08:01:50.220Z,71.56
2022-08-31T08:04:54.758Z,70.98
2022-08-31T08:08:16.873Z,72.14
2022-08-31T08:11:29.151Z,71.82
2022-08-31T08:15:05.542Z,71.42
2022-08-31T08:18:20.382Z,72.22
2022-08-31T08:21:26.764Z,72.65
2022-08-31T08:24:31.410Z,71.99
2022-08-31T08:27:55.482Z,72.74
2022-08-31T08:31:02.437Z,72.80
2022-08-31T08:34:06.789Z,72.37
2022-08-31T08:37:12.683Z,72.36
2022-08-31T08:40:42.383Z,72.47
2022-08-31T08:43:52.295Z,71.55
2022-08-31T08:46:57.986Z,71.67
2022-08-31T08:50:09.053Z,71.24
2022-08-31T08:53:15.271Z,71.71
2022-08-31T08:56:33.732Z,72.83
2022-08-31T08:59:37.933Z,72.70
2022-08-31T09:02:58.398Z,75.18
2022-08-31T09:06:54.707Z,75.76
2022-08-31T09:10:32.531Z,75.69
2022-08-31T09:13:59.154Z,74.73
2022-08-31T09:17:29.978Z,75.11
2022-08-31T09:20:33.817Z,76.22
2022-08-31T09:23:41.192Z,77.38
2022-08-31T09:27:21.063Z,78.38
2022-08-31T09:30:45.315Z,77.84
2022-08-31T09:33:51.126Z,80.73
2022-08-31T09:36:56.851Z,78.65
2022-08-31T09:40:14.741Z,76.58
2022-08-31T09:43:35.114Z,76.97
2022-08-31T09:46:37.874Z,76.46
2022-08-31T09:49:40.006Z,76.11
2022-08-31T09:53:00.811Z,75.85
2022-08-31T09:56:16.917Z,75.77
2022-08-31T09:59:31.643Z,75.35
2022-08-31T10:02:38.134Z,74.19
2022-08-31T10:05:42.607Z,72.84
2022-08-31T10:08:53.634Z,73.76
2022-08-31T10:11:59.417Z,70.63
2022-08-31T10:15:06.543Z,69.52
2022-08-31T10:18:17.474Z,69.60
2022-08-31T10:21:49.047Z,66.50
2022-08-31T10:25:31.651Z,68.13
2022-08-31T10:28:55.802Z,70.58
2022-08-31T10:31:58.352Z,70.53
2022-08-31T10:35:13.120Z,70.55
2022-08-31T10:38:33.498Z,68.77
2022-08-31T10:41:39.591Z,69.02
2022-08-31T10:45:18.441Z,69.08
2022-08-31T10:48:24.701Z,67.87
2022-08-31T10:52:10.206Z,69.06
2022-08-31T10:55:33.542Z,67.10
2022-08-31T10:58:51.010Z,65.51
2022-08-31T11:02:01.978Z,63.76
2022-08-31T11:05:22.982Z,65.21
2022-08-31T11:08:49.808Z,63.51
2022-08-31T11:12:00.106Z,62.87
2022-08-31T11:15:09.945Z,63.47
2022-08-31T11:18:19.136Z,64.28
2022-08-31T11:21:36.192Z,63.01
2022-08-31T11:24:58.131Z,61.69
2022-08-31T11:28:12.182Z,61.00
2022-08-31T11:31:24.142Z,60.82
2022-08-31T11:34:29.793Z,61.76
2022-08-31T11:37:52.295Z,56.77
2022-08-31T11:41:00.415Z,56.06
2022-08-31T11:44:04.739Z,55.46
2022-08-31T11:47:28.518Z,56.46
2022-08-31T11:50:39.467Z,57.64
2022-08-31T11:53:44.541Z,58.40
2022-08-31T11:56:47.521Z,61.25
2022-08-31T11:59:50.589Z,57.42
2022-08-31T12:03:05.314Z,55.98
2022-08-31T12:06:25.709Z,52.64
2022-08-31T12:10:04.200Z,55.95
2022-08-31T12:13:18.867Z,56.60
2022-08-31T12:16:31.499Z,54.33
2022-08-31T12:20:02.563Z,53.33
2022-08-31T12:23:37.710Z,54.00
2022-08-31T12:26:45.464Z,54.48
2022-08-31T12:29:47.827Z,55.57
2022-08-31T12:33:26.365Z,56.09
2022-08-31T12:36:31.417Z,56.08
2022-08-31T12:39:34.475Z,57.57
2022-08-31T12:42:51.277Z,56.68
2022-08-31T12:46:28.324Z,55.17
2022-08-31T12:50:04.181Z,55.23
2022-08-31T12:53:34.063Z,54.20
2022-08-31T12:57:12.664Z,53.83
2022-08-31T13:00:51.698Z,56.16
2022-08-31T13:04:01.746Z,57.88
2022-08-31T13:07:34.548Z,58.24
2022-08-31T13:10:38.220Z,60.44
2022-08-31T13:13:40.475Z,60.35
2022-08-31T13:16:47.997Z,62.96
2022-08-31T13:19:58.611Z,61.45
2022-08-31T13:23:02.539Z,62.54
2022-08-31T13:26:21.125Z,60.45
2022-08-31T13:29:24.106Z,63.05
2022-08-31T13:32:33.015Z,61.38
2022-08-31T13:35:37.012Z,57.17
2022-08-31T13:38:51.938Z,58.16
2022-08-31T13:42:06.100Z,58.18
2022-08-31T13:45:35.082Z,60.08
2022-08-31T13:48:40.689Z,59.02
2022-08-31T13:51:45.406Z,58.55
2022-08-31T13:55:36.414Z,59.23
2022-08-31T13:58:40.038Z,58.03
2022-08-31T14:01:45.608Z,57.23
2022-08-31T14:05:00.595Z,57.34
2022-08-31T14:08:04.155Z,57.78
2022-08-31T14:11:14.130Z,57.17
2022-08-31T14:14:16.238Z,56.52
2022-08-31T14:17:26.538Z,56.00
2022-08-31T14:20:36.978Z,55.98
2022-08-31T14:23:53.062Z,53.36
2022-08-31T14:26:55.134Z,56.20
2022-08-31T14:29:58.501Z,53.90
2022-08-31T14:33:01.197Z,49.35
2022-08-31T14:36:14.669Z,49.89
2022-08-31T14:39:17.380Z,46.26
2022-08-31T14:42:29.648Z,39.62
2022-08-31T14:45:31.924Z,47.32
2022-08-31T14:48:34.916Z,50.08
2022-08-31T14:51:41.317Z,47.01
2022-08-31T14:54:43.671Z,38.31
2022-08-31T14:57:46.438Z,35.88
2022-08-31T15:00:53.184Z,40.19
2022-08-31T15:03:56.023Z,39.72
2022-08-31T15:07:09.700Z,45.68
2022-08-31T15:10:13.033Z,47.82
2022-08-31T15:13:16.799Z,40.47
2022-08-31T15:16:18.943Z,37.47
2022-08-31T15:19:23.218Z,41.07
2022-08-31T15:22:26.454Z,47.88
2022-08-31T15:25:28.863Z,44.45
2022-08-31T15:28:33.515Z,47.24
2022-08-31T15:31:35.735Z,38.93
2022-08-31T15:34:38.583Z,36.33
2022-08-31T15:37:41.335Z,42.49
2022-08-31T15:40:43.506Z,40.94
2022-08-31T15:43:45.727Z,39.67
2022-08-31T15:47:06.468Z,37.83
2022-08-31T15:50:09.368Z,36.72
2022-08-31T15:53:13.511Z,45.13
2022-08-31T15:56:16.089Z,49.75
2022-08-31T15:59:18.230Z,51.43
2022-08-31T16:02:20.485Z,54.46
2022-08-31T16:05:24.030Z,52.34
2022-08-31T16:08:27.614Z,52.34
2022-08-31T16:11:33.562Z,51.80
2022-08-31T16:14:41.733Z,47.81
2022-08-31T16:17:43.868Z,38.68
2022-08-31T16:20:49.142Z,39.26
2022-08-31T16:24:01.177Z,39.88
2022-08-31T16:27:08.898Z,46.13
2022-08-31T16:30:12.366Z,49.73
2022-08-31T16:33:14.530Z,51.78
2022-08-31T16:36:18.649Z,51.12
2022-08-31T16:39:22.783Z,49.83
2022-08-31T16:42:27.439Z,47.52
2022-08-31T16:45:29.740Z,42.29
2022-08-31T16:48:50.651Z,46.33
2022-08-31T16:51:52.996Z,50.11
2022-08-31T16:54:57.267Z,51.27
2022-08-31T16:57:59.587Z,51.85
2022-08-31T17:01:13.213Z,49.34
2022-08-31T17:04:34.790Z,50.42
2022-08-31T17:07:42.756Z,52.99
2022-08-31T17:10:44.975Z,49.52
2022-08-31T17:13:49.603Z,49.78
2022-08-31T17:16:52.171Z,45.95
2022-08-31T17:19:56.181Z,43.71
2022-08-31T17:22:58.442Z,41.21
2022-08-31T17:26:06.190Z,44.64
2022-08-31T17:29:08.454Z,40.75
2022-08-31T17:32:12.910Z,38.70
2022-08-31T17:35:19.094Z,40.52
2022-08-31T17:38:21.597Z,40.56
2022-08-31T17:41:26.633Z,39.56
2022-08-31T17:44:32.517Z,46.55
2022-08-31T17:47:36.078Z,53.19
2022-08-31T17:50:44.596Z,54.63
2022-08-31T17:53:46.743Z,52.41
2022-08-31T17:56:53.466Z,52.73
2022-08-31T17:59:55.692Z,50.91
2022-08-31T18:02:57.776Z,53.28
2022-08-31T18:05:59.939Z,53.72
2022-08-31T18:09:02.064Z,51.69
2022-08-31T18:12:05.188Z,52.18
2022-08-31T18:15:12.043Z,54.53
2022-08-31T18:18:15.563Z,56.74
2022-08-31T18:21:24.473Z,57.20
2022-08-31T18:24:26.936Z,58.67
2022-08-31T18:27:29.274Z,57.81
2022-08-31T18:30:34.106Z,57.08
2022-08-31T18:33:37.274Z,58.46
2022-08-31T18:36:40.212Z,58.80
2022-08-31T18:40:04.153Z,59.95
2022-08-31T18:43:27.516Z,63.51
2022-08-31T18:46:29.655Z,62.69
2022-08-31T18:49:38.700Z,64.73
2022-08-31T18:52:46.688Z,64.41
2022-08-31T18:55:50.636Z,65.48
2022-08-31T18:58:52.726Z,67.06
2022-08-31T19:01:55.143Z,66.82
2022-08-31T19:04:57.411Z,67.15
2022-08-31T19:08:00.634Z,67.22
2022-08-31T19:11:07.161Z,68.22
2022-08-31T19:14:09.816Z,69.10
2022-08-31T19:17:12.182Z,69.43
2022-08-31T19:20:16.294Z,69.75
2022-08-31T19:23:20.241Z,70.32
2022-08-31T19:26:37.251Z,70.38
2022-08-31T19:29:39.515Z,70.94
2022-08-31T19:32:41.609Z,70.91
2022-08-31T19:35:44.295Z,73.19
2022-08-31T19:38:46.697Z,73.40
2022-08-31T19:41:50.561Z,74.37
2022-08-31T19:45:22.773Z,73.56
2022-08-31T19:48:23.132Z,74.32
2022-08-31T19:51:25.856Z,74.70
2022-08-31T19:54:33.891Z,75.93
2022-08-31T19:57:37.476Z,75.69
2022-08-31T20:00:39.572Z,76.15
2022-08-31T20:03:41.699Z,76.50
2022-08-31T20:06:45.398Z,76.04
2022-08-31T20:09:47.494Z,76.26
2022-08-31T20:12:49.569Z,76.80
2022-08-31T20:15:56.061Z,77.60
2022-08-31T20:18:59.792Z,78.16
2022-08-31T20:22:07.967Z,78.06
2022-08-31T20:25:17.606Z,79.04
2022-08-31T20:28:27.353Z,78.51
2022-08-31T20:31:29.463Z,78.24
2022-08-31T20:34:31.726Z,79.08
2022-08-31T20:37:33.840Z,79.99
2022-08-31T20:40:39.315Z,79.09
2022-08-31T20:43:44.623Z,78.79
2022-08-31T20:47:12.735Z,79.71
2022-08-31T20:50:15.008Z,79.75
2022-08-31T20:53:35.990Z,79.92
2022-08-31T20:56:42.706Z,79.42
2022-08-31T20:59:45.176Z,80.86
2022-08-31T21:02:49.868Z,79.52
2022-08-31T21:05:52.137Z,79.08
2022-08-31T21:08:56.714Z,79.43
2022-08-31T21:11:59.088Z,79.63
2022-08-31T21:15:01.174Z,80.25
2022-08-31T21:18:03.335Z,79.16
2022-08-31T21:21:08.746Z,79.39
2022-08-31T21:24:12.063Z,80.48
2022-08-31T21:27:16.950Z,79.91
2022-08-31T21:30:19.134Z,80.60
2022-08-31T21:33:21.538Z,80.66
2022-08-31T21:36:24.391Z,80.87
2022-08-31T21:39:27.076Z,80.80
2022-08-31T21:42:29.166Z,80.63
2022-08-31T21:45:31.537Z,80.76
2022-08-31T21:48:35.730Z,80.39
2022-08-31T21:51:47.398Z,80.60
2022-08-31T21:54:49.771Z,80.50
2022-08-31T21:57:51.831Z,79.96
2022-08-31T22:00:56.108Z,79.79
2022-08-31T22:03:59.304Z,79.09
2022-08-31T22:07:01.731Z,78.49
2022-08-31T22:10:06.868Z,80.69
2022-08-31T22:13:11.439Z,79.91
2022-08-31T22:16:19.328Z,80.57
2022-08-31T22:19:25.587Z,80.78
2022-08-31T22:22:27.743Z,81.71
2022-08-31T22:25:29.882Z,82.03
2022-08-31T22:28:35.752Z,81.07
2022-08-31T22:31:39.221Z,80.58
2022-08-31T22:34:42.335Z,79.66
2022-08-31T22:37:44.420Z,81.46
2022-08-31T22:40:50.104Z,81.01
2022-08-31T22:43:52.351Z,81.57
2022-08-31T22:46:56.856Z,80.96
2022-08-31T22:49:58.992Z,80.30
2022-08-31T22:53:01.081Z,81.09
2022-08-31T22:56:07.518Z,82.75
2022-08-31T22:59:13.351Z,79.84
2022-08-31T23:02:17.287Z,79.94
2022-08-31T23:05:20.632Z,80.23
2022-08-31T23:08:23.060Z,79.32
2022-08-31T23:11:25.451Z,78.48
2022-08-31T23:14:27.850Z,79.35
2022-08-31T23:17:29.918Z,80.61
2022-08-31T23:20:32.043Z,80.20
2022-08-31T23:23:34.554Z,81.16
2022-08-31T23:26:37.803Z,79.33
2022-08-31T23:29:47.148Z,78.97
2022-08-31T23:32:50.051Z,77.63
2022-08-31T23:35:56.129Z,77.68
2022-08-31T23:38:59.129Z,77.56
2022-08-31T23:42:01.698Z,77.63
2022-08-31T23:45:04.212Z,78.00
2022-08-31T23:48:06.304Z,76.87
2022-08-31T23:51:09.459Z,76.52
2022-08-31T23:54:12.545Z,76.77
2022-08-31T23:57:31.708Z,78.21
